sensor_id;sensor_type;location;lat;lon;timestamp;P1;durP1;ratioP1;P2;durP2;ratioP2
5343;SDS011;2694;48.950;8.970;2022-08-03T00:01:04;3.70;;;1.70;;
5343;SDS011;2694;48.950;8.970;2022-08-03T00:03:30;3.28;;;1.50;;
5343;SDS011;2694;48.950;8.970;2022-08-03T00:05:59;7.43;;;1.90;;
5343;SDS011;2694;48.950;8.970;2022-08-03T00:08:26;1.88;;;1.38;;
5343;SDS011;2694;48.950;8.970;2022-08-03T00:10:53;5.43;;;2.08;;
5343;SDS011;2694;48.950;8.970;2022-08-03T00:13:20;2.00;;;1.67;;
5343;SDS011;2694;48.950;8.970;2022-08-03T00:15:46;2.60;;;1.60;;
5343;SDS011;2694;48.950;8.970;2022-08-03T00:18:13;4.03;;;1.80;;
5343;SDS011;2694;48.950;8.970;2022-08-03T00:20:40;3.92;;;2.20;;
5343;SDS011;2694;48.950;8.970;2022-08-03T00:23:08;2.97;;;1.48;;
5343;SDS011;2694;48.950;8.970;2022-08-03T00:25:35;3.05;;;1.70;;
5343;SDS011;2694;48.950;8.970;2022-08-03T00:28:03;3.30;;;1.90;;
5343;SDS011;2694;48.950;8.970;2022-08-03T00:30:31;2.67;;;2.15;;
5343;SDS011;2694;48.950;8.970;2022-08-03T00:32:58;1.90;;;1.63;;
5343;SDS011;2694;48.950;8.970;2022-08-03T00:35:25;3.15;;;2.00;;
5343;SDS011;2694;48.950;8.970;2022-08-03T00:37:52;4.20;;;2.10;;
5343;SDS011;2694;48.950;8.970;2022-08-03T00:40:20;4.00;;;1.80;;
5343;SDS011;2694;48.950;8.970;2022-08-03T00:42:48;3.40;;;2.22;;
5343;SDS011;2694;48.950;8.970;2022-08-03T00:45:16;3.45;;;2.00;;
5343;SDS011;2694;48.950;8.970;2022-08-03T00:47:43;2.00;;;1.60;;
5343;SDS011;2694;48.950;8.970;2022-08-03T00:50:10;2.30;;;1.40;;
5343;SDS011;2694;48.950;8.970;2022-08-03T00:52:37;2.37;;;1.70;;
5343;SDS011;2694;48.950;8.970;2022-08-03T00:55:04;2.47;;;1.80;;
5343;SDS011;2694;48.950;8.970;2022-08-03T00:57:33;3.55;;;1.75;;
5343;SDS011;2694;48.950;8.970;2022-08-03T01:00:00;5.40;;;1.60;;
5343;SDS011;2694;48.950;8.970;2022-08-03T01:02:27;4.85;;;2.00;;
5343;SDS011;2694;48.950;8.970;2022-08-03T01:04:54;4.75;;;2.03;;
5343;SDS011;2694;48.950;8.970;2022-08-03T01:07:24;3.90;;;1.60;;
5343;SDS011;2694;48.950;8.970;2022-08-03T01:09:59;3.90;;;1.70;;
5343;SDS011;2694;48.950;8.970;2022-08-03T01:12:31;2.50;;;1.70;;
5343;SDS011;2694;48.950;8.970;2022-08-03T01:15:05;2.50;;;1.80;;
5343;SDS011;2694;48.950;8.970;2022-08-03T01:17:39;3.42;;;1.50;;
5343;SDS011;2694;48.950;8.970;2022-08-03T01:20:12;3.67;;;1.70;;
5343;SDS011;2694;48.950;8.970;2022-08-03T01:26:19;5.35;;;2.25;;
5343;SDS011;2694;48.950;8.970;2022-08-03T01:32:06;6.60;;;2.20;;
5343;SDS011;2694;48.950;8.970;2022-08-03T01:34:40;3.70;;;2.00;;
5343;SDS011;2694;48.950;8.970;2022-08-03T01:37:12;4.15;;;2.50;;
5343;SDS011;2694;48.950;8.970;2022-08-03T01:39:41;3.45;;;2.20;;
5343;SDS011;2694;48.950;8.970;2022-08-03T01:42:09;2.85;;;1.95;;
5343;SDS011;2694;48.950;8.970;2022-08-03T01:44:40;4.85;;;2.20;;
5343;SDS011;2694;48.950;8.970;2022-08-03T01:47:10;2.63;;;1.98;;
5343;SDS011;2694;48.950;8.970;2022-08-03T01:49:38;5.40;;;2.08;;
5343;SDS011;2694;48.950;8.970;2022-08-03T01:52:08;4.70;;;2.28;;
5343;SDS011;2694;48.950;8.970;2022-08-03T01:54:39;10.10;;;2.30;;
5343;SDS011;2694;48.950;8.970;2022-08-03T01:57:09;2.97;;;2.03;;
5343;SDS011;2694;48.950;8.970;2022-08-03T01:59:36;3.17;;;2.20;;
5343;SDS011;2694;48.950;8.970;2022-08-03T02:02:07;3.30;;;2.20;;
5343;SDS011;2694;48.950;8.970;2022-08-03T02:04:34;2.70;;;2.20;;
5343;SDS011;2694;48.950;8.970;2022-08-03T02:07:03;2.50;;;2.03;;
5343;SDS011;2694;48.950;8.970;2022-08-03T02:09:31;4.80;;;2.50;;
5343;SDS011;2694;48.950;8.970;2022-08-03T02:12:00;2.47;;;2.15;;
5343;SDS011;2694;48.950;8.970;2022-08-03T02:14:27;3.42;;;2.33;;
5343;SDS011;2694;48.950;8.970;2022-08-03T02:16:57;4.18;;;2.50;;
5343;SDS011;2694;48.950;8.970;2022-08-03T02:19:25;4.00;;;2.20;;
5343;SDS011;2694;48.950;8.970;2022-08-03T02:21:53;4.80;;;2.50;;
5343;SDS011;2694;48.950;8.970;2022-08-03T02:24:20;3.85;;;2.15;;
5343;SDS011;2694;48.950;8.970;2022-08-03T02:26:47;4.60;;;2.30;;
5343;SDS011;2694;48.950;8.970;2022-08-03T02:29:17;4.35;;;2.00;;
5343;SDS011;2694;48.950;8.970;2022-08-03T02:31:48;4.18;;;2.20;;
5343;SDS011;2694;48.950;8.970;2022-08-03T02:34:17;3.22;;;2.10;;
5343;SDS011;2694;48.950;8.970;2022-08-03T02:36:49;6.30;;;2.15;;
5343;SDS011;2694;48.950;8.970;2022-08-03T02:39:19;3.75;;;2.10;;
5343;SDS011;2694;48.950;8.970;2022-08-03T02:41:50;3.83;;;2.17;;
5343;SDS011;2694;48.950;8.970;2022-08-03T02:44:22;4.10;;;2.10;;
5343;SDS011;2694;48.950;8.970;2022-08-03T02:46:52;3.88;;;2.10;;
5343;SDS011;2694;48.950;8.970;2022-08-03T02:49:23;3.92;;;2.15;;
5343;SDS011;2694;48.950;8.970;2022-08-03T02:51:51;2.58;;;2.10;;
5343;SDS011;2694;48.950;8.970;2022-08-03T02:54:21;2.40;;;2.10;;
5343;SDS011;2694;48.950;8.970;2022-08-03T02:56:49;3.88;;;2.17;;
5343;SDS011;2694;48.950;8.970;2022-08-03T02:59:19;2.40;;;1.83;;
5343;SDS011;2694;48.950;8.970;2022-08-03T03:01:47;6.25;;;4.03;;
5343;SDS011;2694;48.950;8.970;2022-08-03T03:04:14;2.80;;;2.40;;
5343;SDS011;2694;48.950;8.970;2022-08-03T03:06:43;3.85;;;2.63;;
5343;SDS011;2694;48.950;8.970;2022-08-03T03:09:10;4.88;;;2.83;;
5343;SDS011;2694;48.950;8.970;2022-08-03T03:11:37;6.40;;;2.60;;
5343;SDS011;2694;48.950;8.970;2022-08-03T03:14:05;3.58;;;2.90;;
5343;SDS011;2694;48.950;8.970;2022-08-03T03:16:34;5.75;;;2.90;;
5343;SDS011;2694;48.950;8.970;2022-08-03T03:19:01;4.20;;;2.50;;
5343;SDS011;2694;48.950;8.970;2022-08-03T03:21:28;7.47;;;2.58;;
5343;SDS011;2694;48.950;8.970;2022-08-03T03:23:58;3.42;;;2.13;;
5343;SDS011;2694;48.950;8.970;2022-08-03T03:26:26;3.92;;;2.03;;
5343;SDS011;2694;48.950;8.970;2022-08-03T03:28:53;3.67;;;2.50;;
5343;SDS011;2694;48.950;8.970;2022-08-03T03:31:21;3.83;;;2.13;;
5343;SDS011;2694;48.950;8.970;2022-08-03T03:33:48;3.60;;;2.30;;
5343;SDS011;2694;48.950;8.970;2022-08-03T03:36:15;4.10;;;2.30;;
5343;SDS011;2694;48.950;8.970;2022-08-03T03:38:42;2.63;;;1.70;;
5343;SDS011;2694;48.950;8.970;2022-08-03T03:41:10;4.00;;;2.00;;
5343;SDS011;2694;48.950;8.970;2022-08-03T03:43:38;3.87;;;2.40;;
5343;SDS011;2694;48.950;8.970;2022-08-03T03:46:05;4.75;;;2.60;;
5343;SDS011;2694;48.950;8.970;2022-08-03T03:48:32;3.78;;;2.22;;
5343;SDS011;2694;48.950;8.970;2022-08-03T03:50:59;6.18;;;2.20;;
5343;SDS011;2694;48.950;8.970;2022-08-03T03:53:26;5.13;;;2.43;;
5343;SDS011;2694;48.950;8.970;2022-08-03T03:55:53;4.90;;;2.40;;
5343;SDS011;2694;48.950;8.970;2022-08-03T03:58:21;5.22;;;2.60;;
5343;SDS011;2694;48.950;8.970;2022-08-03T04:00:48;5.70;;;4.05;;
5343;SDS011;2694;48.950;8.970;2022-08-03T04:03:15;5.43;;;3.78;;
5343;SDS011;2694;48.950;8.970;2022-08-03T04:05:42;6.97;;;3.15;;
5343;SDS011;2694;48.950;8.970;2022-08-03T04:08:27;4.68;;;3.30;;
5343;SDS011;2694;48.950;8.970;2022-08-03T04:11:12;4.53;;;2.70;;
5343;SDS011;2694;48.950;8.970;2022-08-03T04:13:46;6.78;;;2.75;;
5343;SDS011;2694;48.950;8.970;2022-08-03T04:16:15;5.13;;;2.63;;
5343;SDS011;2694;48.950;8.970;2022-08-03T04:18:46;6.63;;;3.10;;
5343;SDS011;2694;48.950;8.970;2022-08-03T04:21:16;5.80;;;2.50;;
5343;SDS011;2694;48.950;8.970;2022-08-03T04:23:47;3.95;;;2.92;;
5343;SDS011;2694;48.950;8.970;2022-08-03T04:26:19;5.60;;;3.20;;
5343;SDS011;2694;48.950;8.970;2022-08-03T04:28:48;5.40;;;2.80;;
5343;SDS011;2694;48.950;8.970;2022-08-03T04:31:17;3.80;;;2.63;;
5343;SDS011;2694;48.950;8.970;2022-08-03T04:33:47;6.55;;;3.20;;
5343;SDS011;2694;48.950;8.970;2022-08-03T04:36:16;4.10;;;2.60;;
5343;SDS011;2694;48.950;8.970;2022-08-03T04:38:51;6.28;;;2.60;;
5343;SDS011;2694;48.950;8.970;2022-08-03T04:41:21;8.18;;;2.78;;
5343;SDS011;2694;48.950;8.970;2022-08-03T04:43:51;5.40;;;2.85;;
5343;SDS011;2694;48.950;8.970;2022-08-03T04:46:21;3.55;;;2.50;;
5343;SDS011;2694;48.950;8.970;2022-08-03T04:48:48;6.05;;;2.97;;
5343;SDS011;2694;48.950;8.970;2022-08-03T04:51:16;4.82;;;2.30;;
5343;SDS011;2694;48.950;8.970;2022-08-03T04:53:43;4.60;;;2.60;;
5343;SDS011;2694;48.950;8.970;2022-08-03T04:56:10;7.07;;;2.58;;
5343;SDS011;2694;48.950;8.970;2022-08-03T04:58:37;2.67;;;1.97;;
5343;SDS011;2694;48.950;8.970;2022-08-03T05:01:05;4.60;;;2.47;;
5343;SDS011;2694;48.950;8.970;2022-08-03T05:03:32;3.33;;;2.50;;
5343;SDS011;2694;48.950;8.970;2022-08-03T05:05:59;3.90;;;2.50;;
5343;SDS011;2694;48.950;8.970;2022-08-03T05:08:26;4.85;;;2.50;;
5343;SDS011;2694;48.950;8.970;2022-08-03T05:10:52;5.40;;;2.90;;
5343;SDS011;2694;48.950;8.970;2022-08-03T05:13:19;4.95;;;2.70;;
5343;SDS011;2694;48.950;8.970;2022-08-03T05:15:46;6.40;;;2.78;;
5343;SDS011;2694;48.950;8.970;2022-08-03T05:18:14;4.25;;;2.00;;
5343;SDS011;2694;48.950;8.970;2022-08-03T05:20:41;3.40;;;2.40;;
5343;SDS011;2694;48.950;8.970;2022-08-03T05:23:08;3.78;;;2.47;;
5343;SDS011;2694;48.950;8.970;2022-08-03T05:25:35;5.88;;;2.63;;
5343;SDS011;2694;48.950;8.970;2022-08-03T05:28:02;3.70;;;2.53;;
5343;SDS011;2694;48.950;8.970;2022-08-03T05:30:29;4.40;;;2.53;;
5343;SDS011;2694;48.950;8.970;2022-08-03T05:32:56;6.32;;;2.90;;
5343;SDS011;2694;48.950;8.970;2022-08-03T05:35:25;4.43;;;2.50;;
5343;SDS011;2694;48.950;8.970;2022-08-03T05:37:52;8.25;;;2.90;;
5343;SDS011;2694;48.950;8.970;2022-08-03T05:40:19;3.90;;;2.73;;
5343;SDS011;2694;48.950;8.970;2022-08-03T05:42:46;6.03;;;3.50;;
5343;SDS011;2694;48.950;8.970;2022-08-03T05:45:13;6.97;;;3.45;;
5343;SDS011;2694;48.950;8.970;2022-08-03T05:47:41;7.15;;;4.10;;
5343;SDS011;2694;48.950;8.970;2022-08-03T05:50:08;6.07;;;4.10;;
5343;SDS011;2694;48.950;8.970;2022-08-03T05:52:37;5.72;;;4.00;;
5343;SDS011;2694;48.950;8.970;2022-08-03T05:55:05;4.27;;;3.43;;
5343;SDS011;2694;48.950;8.970;2022-08-03T05:57:32;4.80;;;3.72;;
5343;SDS011;2694;48.950;8.970;2022-08-03T06:00:00;6.15;;;4.43;;
5343;SDS011;2694;48.950;8.970;2022-08-03T06:02:29;9.02;;;4.35;;
5343;SDS011;2694;48.950;8.970;2022-08-03T06:04:56;7.50;;;4.10;;
5343;SDS011;2694;48.950;8.970;2022-08-03T06:07:23;8.13;;;4.50;;
5343;SDS011;2694;48.950;8.970;2022-08-03T06:09:51;8.43;;;4.75;;
5343;SDS011;2694;48.950;8.970;2022-08-03T06:12:18;10.23;;;4.65;;
5343;SDS011;2694;48.950;8.970;2022-08-03T06:14:45;9.52;;;4.50;;
5343;SDS011;2694;48.950;8.970;2022-08-03T06:17:12;6.40;;;3.75;;
5343;SDS011;2694;48.950;8.970;2022-08-03T06:19:38;8.50;;;4.80;;
5343;SDS011;2694;48.950;8.970;2022-08-03T06:22:06;8.10;;;4.30;;
5343;SDS011;2694;48.950;8.970;2022-08-03T06:24:32;7.78;;;4.95;;
5343;SDS011;2694;48.950;8.970;2022-08-03T06:27:00;10.27;;;4.28;;
5343;SDS011;2694;48.950;8.970;2022-08-03T06:29:27;9.38;;;4.05;;
5343;SDS011;2694;48.950;8.970;2022-08-03T06:31:54;6.90;;;3.65;;
5343;SDS011;2694;48.950;8.970;2022-08-03T06:34:21;6.05;;;3.75;;
5343;SDS011;2694;48.950;8.970;2022-08-03T06:36:47;7.55;;;3.40;;
5343;SDS011;2694;48.950;8.970;2022-08-03T06:39:15;7.43;;;3.97;;
5343;SDS011;2694;48.950;8.970;2022-08-03T06:41:42;6.43;;;3.80;;
5343;SDS011;2694;48.950;8.970;2022-08-03T06:44:10;5.30;;;3.40;;
5343;SDS011;2694;48.950;8.970;2022-08-03T06:46:37;12.40;;;3.70;;
5343;SDS011;2694;48.950;8.970;2022-08-03T06:49:05;8.23;;;3.55;;
5343;SDS011;2694;48.950;8.970;2022-08-03T06:51:32;6.93;;;3.30;;
5343;SDS011;2694;48.950;8.970;2022-08-03T06:53:59;7.13;;;3.70;;
5343;SDS011;2694;48.950;8.970;2022-08-03T06:56:26;5.10;;;3.40;;
5343;SDS011;2694;48.950;8.970;2022-08-03T06:58:52;6.40;;;2.97;;
5343;SDS011;2694;48.950;8.970;2022-08-03T07:01:21;9.63;;;3.80;;
5343;SDS011;2694;48.950;8.970;2022-08-03T07:03:47;5.40;;;3.22;;
5343;SDS011;2694;48.950;8.970;2022-08-03T07:06:14;5.28;;;3.38;;
5343;SDS011;2694;48.950;8.970;2022-08-03T07:08:41;6.43;;;3.80;;
5343;SDS011;2694;48.950;8.970;2022-08-03T07:11:08;4.60;;;3.23;;
5343;SDS011;2694;48.950;8.970;2022-08-03T07:13:35;7.00;;;4.20;;
5343;SDS011;2694;48.950;8.970;2022-08-03T07:16:01;4.90;;;3.53;;
5343;SDS011;2694;48.950;8.970;2022-08-03T07:18:30;4.10;;;3.30;;
5343;SDS011;2694;48.950;8.970;2022-08-03T07:20:56;7.63;;;3.70;;
5343;SDS011;2694;48.950;8.970;2022-08-03T07:23:23;6.05;;;3.10;;
5343;SDS011;2694;48.950;8.970;2022-08-03T07:25:50;5.38;;;2.95;;
5343;SDS011;2694;48.950;8.970;2022-08-03T07:28:18;10.57;;;3.13;;
5343;SDS011;2694;48.950;8.970;2022-08-03T07:30:45;4.70;;;2.90;;
5343;SDS011;2694;48.950;8.970;2022-08-03T07:33:12;6.63;;;2.75;;
5343;SDS011;2694;48.950;8.970;2022-08-03T07:35:47;6.25;;;2.42;;
5343;SDS011;2694;48.950;8.970;2022-08-03T07:38:18;5.55;;;3.00;;
5343;SDS011;2694;48.950;8.970;2022-08-03T07:40:45;4.72;;;2.40;;
5343;SDS011;2694;48.950;8.970;2022-08-03T07:43:12;6.07;;;2.20;;
5343;SDS011;2694;48.950;8.970;2022-08-03T07:45:39;5.60;;;2.40;;
5343;SDS011;2694;48.950;8.970;2022-08-03T07:48:05;7.63;;;2.70;;
5343;SDS011;2694;48.950;8.970;2022-08-03T07:50:32;5.13;;;2.47;;
5343;SDS011;2694;48.950;8.970;2022-08-03T07:53:00;7.45;;;2.58;;
5343;SDS011;2694;48.950;8.970;2022-08-03T07:55:27;5.80;;;2.30;;
5343;SDS011;2694;48.950;8.970;2022-08-03T07:57:58;9.02;;;2.85;;
5343;SDS011;2694;48.950;8.970;2022-08-03T08:00:29;4.00;;;2.28;;
5343;SDS011;2694;48.950;8.970;2022-08-03T08:02:56;6.25;;;2.10;;
5343;SDS011;2694;48.950;8.970;2022-08-03T08:05:23;3.80;;;2.20;;
5343;SDS011;2694;48.950;8.970;2022-08-03T08:07:50;5.30;;;2.20;;
5343;SDS011;2694;48.950;8.970;2022-08-03T08:10:18;4.70;;;2.22;;
5343;SDS011;2694;48.950;8.970;2022-08-03T08:12:45;6.93;;;2.03;;
5343;SDS011;2694;48.950;8.970;2022-08-03T08:15:12;3.08;;;2.10;;
5343;SDS011;2694;48.950;8.970;2022-08-03T08:17:42;5.40;;;2.20;;
5343;SDS011;2694;48.950;8.970;2022-08-03T08:20:10;3.60;;;2.20;;
5343;SDS011;2694;48.950;8.970;2022-08-03T08:22:40;4.85;;;2.05;;
5343;SDS011;2694;48.950;8.970;2022-08-03T08:25:07;4.93;;;2.30;;
5343;SDS011;2694;48.950;8.970;2022-08-03T08:27:40;4.20;;;2.42;;
5343;SDS011;2694;48.950;8.970;2022-08-03T08:30:08;2.85;;;1.83;;
5343;SDS011;2694;48.950;8.970;2022-08-03T08:32:36;3.10;;;1.77;;
5343;SDS011;2694;48.950;8.970;2022-08-03T08:35:03;6.50;;;1.75;;
5343;SDS011;2694;48.950;8.970;2022-08-03T08:37:31;5.25;;;1.80;;
5343;SDS011;2694;48.950;8.970;2022-08-03T08:39:58;2.55;;;1.73;;
5343;SDS011;2694;48.950;8.970;2022-08-03T08:42:26;3.33;;;1.63;;
5343;SDS011;2694;48.950;8.970;2022-08-03T08:44:54;6.45;;;1.65;;
5343;SDS011;2694;48.950;8.970;2022-08-03T08:47:22;3.55;;;1.70;;
5343;SDS011;2694;48.950;8.970;2022-08-03T08:49:51;4.15;;;1.80;;
5343;SDS011;2694;48.950;8.970;2022-08-03T08:52:20;2.00;;;1.60;;
5343;SDS011;2694;48.950;8.970;2022-08-03T08:54:50;2.10;;;1.20;;
5343;SDS011;2694;48.950;8.970;2022-08-03T08:57:19;1.58;;;1.40;;
5343;SDS011;2694;48.950;8.970;2022-08-03T08:59:49;2.15;;;1.55;;
5343;SDS011;2694;48.950;8.970;2022-08-03T09:02:17;3.33;;;1.27;;
5343;SDS011;2694;48.950;8.970;2022-08-03T09:04:44;2.08;;;1.50;;
5343;SDS011;2694;48.950;8.970;2022-08-03T09:07:12;2.65;;;1.35;;
5343;SDS011;2694;48.950;8.970;2022-08-03T09:09:39;2.60;;;1.60;;
5343;SDS011;2694;48.950;8.970;2022-08-03T09:12:07;3.22;;;1.20;;
5343;SDS011;2694;48.950;8.970;2022-08-03T09:14:35;2.30;;;1.40;;
5343;SDS011;2694;48.950;8.970;2022-08-03T09:17:02;5.47;;;1.50;;
5343;SDS011;2694;48.950;8.970;2022-08-03T09:19:31;2.45;;;1.30;;
5343;SDS011;2694;48.950;8.970;2022-08-03T09:22:08;1.80;;;1.30;;
5343;SDS011;2694;48.950;8.970;2022-08-03T09:24:37;3.35;;;1.20;;
5343;SDS011;2694;48.950;8.970;2022-08-03T09:27:20;3.30;;;1.30;;
5343;SDS011;2694;48.950;8.970;2022-08-03T09:29:47;5.20;;;1.20;;
5343;SDS011;2694;48.950;8.970;2022-08-03T09:32:14;4.35;;;1.25;;
5343;SDS011;2694;48.950;8.970;2022-08-03T09:34:47;2.93;;;0.90;;
5343;SDS011;2694;48.950;8.970;2022-08-03T09:37:15;2.60;;;1.00;;
5343;SDS011;2694;48.950;8.970;2022-08-03T09:39:44;1.80;;;1.05;;
5343;SDS011;2694;48.950;8.970;2022-08-03T09:42:11;1.83;;;1.17;;
5343;SDS011;2694;48.950;8.970;2022-08-03T09:44:40;1.73;;;1.10;;
5343;SDS011;2694;48.950;8.970;2022-08-03T09:47:08;2.20;;;1.05;;
5343;SDS011;2694;48.950;8.970;2022-08-03T09:49:36;4.35;;;1.10;;
5343;SDS011;2694;48.950;8.970;2022-08-03T09:52:16;3.00;;;1.00;;
5343;SDS011;2694;48.950;8.970;2022-08-03T09:54:49;2.30;;;0.88;;
5343;SDS011;2694;48.950;8.970;2022-08-03T09:57:21;3.33;;;1.20;;
5343;SDS011;2694;48.950;8.970;2022-08-03T09:59:49;3.60;;;1.20;;
5343;SDS011;2694;48.950;8.970;2022-08-03T10:02:20;1.43;;;0.90;;
5343;SDS011;2694;48.950;8.970;2022-08-03T10:04:48;3.67;;;1.17;;
5343;SDS011;2694;48.950;8.970;2022-08-03T10:07:18;2.67;;;1.08;;
5343;SDS011;2694;48.950;8.970;2022-08-03T10:09:52;3.60;;;1.20;;
5343;SDS011;2694;48.950;8.970;2022-08-03T10:12:21;3.42;;;1.20;;
5343;SDS011;2694;48.950;8.970;2022-08-03T10:14:48;2.08;;;1.00;;
5343;SDS011;2694;48.950;8.970;2022-08-03T10:17:16;5.30;;;1.35;;
5343;SDS011;2694;48.950;8.970;2022-08-03T10:19:43;1.67;;;1.20;;
5343;SDS011;2694;48.950;8.970;2022-08-03T10:22:11;3.67;;;1.02;;
5343;SDS011;2694;48.950;8.970;2022-08-03T10:24:46;4.18;;;1.30;;
5343;SDS011;2694;48.950;8.970;2022-08-03T10:27:17;3.00;;;1.40;;
5343;SDS011;2694;48.950;8.970;2022-08-03T10:29:46;1.45;;;1.10;;
5343;SDS011;2694;48.950;8.970;2022-08-03T10:32:17;3.50;;;1.10;;
5343;SDS011;2694;48.950;8.970;2022-08-03T10:34:46;1.30;;;0.90;;
5343;SDS011;2694;48.950;8.970;2022-08-03T10:37:16;1.50;;;1.00;;
5343;SDS011;2694;48.950;8.970;2022-08-03T10:39:45;4.25;;;1.40;;
5343;SDS011;2694;48.950;8.970;2022-08-03T10:42:20;6.78;;;1.30;;
5343;SDS011;2694;48.950;8.970;2022-08-03T10:44:49;1.85;;;1.10;;
5343;SDS011;2694;48.950;8.970;2022-08-03T10:47:20;4.25;;;1.00;;
5343;SDS011;2694;48.950;8.970;2022-08-03T10:49:47;3.65;;;0.70;;
5343;SDS011;2694;48.950;8.970;2022-08-03T10:52:15;3.08;;;1.10;;
5343;SDS011;2694;48.950;8.970;2022-08-03T10:54:42;1.63;;;0.97;;
5343;SDS011;2694;48.950;8.970;2022-08-03T10:57:48;2.70;;;1.00;;
5343;SDS011;2694;48.950;8.970;2022-08-03T11:00:17;3.00;;;1.00;;
5343;SDS011;2694;48.950;8.970;2022-08-03T11:03:01;1.30;;;0.80;;
5343;SDS011;2694;48.950;8.970;2022-08-03T11:05:31;1.20;;;0.80;;
5343;SDS011;2694;48.950;8.970;2022-08-03T11:10:46;3.38;;;1.10;;
5343;SDS011;2694;48.950;8.970;2022-08-03T11:13:15;7.40;;;1.20;;
5343;SDS011;2694;48.950;8.970;2022-08-03T11:15:43;1.50;;;0.80;;
5343;SDS011;2694;48.950;8.970;2022-08-03T11:18:12;4.20;;;1.00;;
5343;SDS011;2694;48.950;8.970;2022-08-03T11:20:43;4.53;;;0.90;;
5343;SDS011;2694;48.950;8.970;2022-08-03T11:23:13;1.00;;;0.80;;
5343;SDS011;2694;48.950;8.970;2022-08-03T11:28:28;1.23;;;0.80;;
5343;SDS011;2694;48.950;8.970;2022-08-03T11:31:07;3.65;;;1.08;;
5343;SDS011;2694;48.950;8.970;2022-08-03T11:34:14;1.77;;;1.10;;
5343;SDS011;2694;48.950;8.970;2022-08-03T11:39:46;4.95;;;1.27;;
5343;SDS011;2694;48.950;8.970;2022-08-03T11:45:09;2.40;;;0.80;;
5343;SDS011;2694;48.950;8.970;2022-08-03T11:47:38;2.40;;;1.00;;
5343;SDS011;2694;48.950;8.970;2022-08-03T11:50:06;1.67;;;1.20;;
5343;SDS011;2694;48.950;8.970;2022-08-03T11:52:34;2.30;;;1.10;;
5343;SDS011;2694;48.950;8.970;2022-08-03T11:55:12;3.58;;;1.00;;
5343;SDS011;2694;48.950;8.970;2022-08-03T11:57:40;3.50;;;1.10;;
5343;SDS011;2694;48.950;8.970;2022-08-03T12:00:20;1.63;;;0.90;;
5343;SDS011;2694;48.950;8.970;2022-08-03T12:08:20;4.30;;;1.30;;
5343;SDS011;2694;48.950;8.970;2022-08-03T12:10:56;7.47;;;1.30;;
5343;SDS011;2694;48.950;8.970;2022-08-03T12:13:24;1.70;;;0.90;;
5343;SDS011;2694;48.950;8.970;2022-08-03T12:15:52;1.42;;;0.95;;
5343;SDS011;2694;48.950;8.970;2022-08-03T12:18:22;1.92;;;1.10;;
5343;SDS011;2694;48.950;8.970;2022-08-03T12:20:49;4.75;;;1.00;;
5343;SDS011;2694;48.950;8.970;2022-08-03T12:23:17;1.40;;;0.80;;
5343;SDS011;2694;48.950;8.970;2022-08-03T12:25:45;1.48;;;0.88;;
5343;SDS011;2694;48.950;8.970;2022-08-03T12:28:14;1.60;;;0.80;;
5343;SDS011;2694;48.950;8.970;2022-08-03T12:30:43;1.60;;;0.90;;
5343;SDS011;2694;48.950;8.970;2022-08-03T12:33:11;2.25;;;1.05;;
5343;SDS011;2694;48.950;8.970;2022-08-03T12:35:45;2.20;;;1.10;;
5343;SDS011;2694;48.950;8.970;2022-08-03T12:38:17;1.95;;;1.00;;
5343;SDS011;2694;48.950;8.970;2022-08-03T12:40:53;3.07;;;1.10;;
5343;SDS011;2694;48.950;8.970;2022-08-03T12:43:21;1.40;;;1.20;;
5343;SDS011;2694;48.950;8.970;2022-08-03T12:45:48;2.00;;;1.10;;
5343;SDS011;2694;48.950;8.970;2022-08-03T12:48:15;4.85;;;2.72;;
5343;SDS011;2694;48.950;8.970;2022-08-03T12:50:42;2.30;;;1.10;;
5343;SDS011;2694;48.950;8.970;2022-08-03T12:53:10;1.48;;;1.00;;
5343;SDS011;2694;48.950;8.970;2022-08-03T12:55:37;1.38;;;0.90;;
5343;SDS011;2694;48.950;8.970;2022-08-03T12:58:05;1.90;;;0.90;;
5343;SDS011;2694;48.950;8.970;2022-08-03T13:00:35;1.67;;;1.13;;
5343;SDS011;2694;48.950;8.970;2022-08-03T13:03:02;1.20;;;1.00;;
5343;SDS011;2694;48.950;8.970;2022-08-03T13:05:31;1.80;;;1.03;;
5343;SDS011;2694;48.950;8.970;2022-08-03T13:08:17;4.00;;;1.10;;
5343;SDS011;2694;48.950;8.970;2022-08-03T13:10:45;2.28;;;1.02;;
5343;SDS011;2694;48.950;8.970;2022-08-03T13:13:12;1.05;;;0.90;;
5343;SDS011;2694;48.950;8.970;2022-08-03T13:15:39;2.50;;;1.30;;
5343;SDS011;2694;48.950;8.970;2022-08-03T13:18:06;1.73;;;1.07;;
5343;SDS011;2694;48.950;8.970;2022-08-03T13:20:33;0.95;;;0.73;;
5343;SDS011;2694;48.950;8.970;2022-08-03T13:23:00;3.40;;;1.00;;
5343;SDS011;2694;48.950;8.970;2022-08-03T13:25:28;1.60;;;1.00;;
5343;SDS011;2694;48.950;8.970;2022-08-03T13:27:56;2.30;;;0.80;;
5343;SDS011;2694;48.950;8.970;2022-08-03T13:30:22;3.85;;;1.17;;
5343;SDS011;2694;48.950;8.970;2022-08-03T13:32:49;3.53;;;0.95;;
5343;SDS011;2694;48.950;8.970;2022-08-03T13:35:16;1.58;;;0.80;;
5343;SDS011;2694;48.950;8.970;2022-08-03T13:37:43;2.85;;;1.10;;
5343;SDS011;2694;48.950;8.970;2022-08-03T13:40:10;2.38;;;1.02;;
5343;SDS011;2694;48.950;8.970;2022-08-03T13:42:38;7.38;;;1.10;;
5343;SDS011;2694;48.950;8.970;2022-08-03T13:45:05;2.37;;;1.23;;
5343;SDS011;2694;48.950;8.970;2022-08-03T13:47:33;2.20;;;1.10;;
5343;SDS011;2694;48.950;8.970;2022-08-03T13:50:00;2.30;;;0.90;;
5343;SDS011;2694;48.950;8.970;2022-08-03T13:52:28;1.83;;;1.17;;
5343;SDS011;2694;48.950;8.970;2022-08-03T13:54:56;2.35;;;1.00;;
5343;SDS011;2694;48.950;8.970;2022-08-03T13:57:23;2.03;;;0.90;;
5343;SDS011;2694;48.950;8.970;2022-08-03T13:59:51;2.95;;;1.10;;
5343;SDS011;2694;48.950;8.970;2022-08-03T14:02:18;2.00;;;0.90;;
5343;SDS011;2694;48.950;8.970;2022-08-03T14:04:45;2.03;;;1.03;;
5343;SDS011;2694;48.950;8.970;2022-08-03T14:07:12;3.45;;;1.05;;
5343;SDS011;2694;48.950;8.970;2022-08-03T14:09:39;2.15;;;1.08;;
5343;SDS011;2694;48.950;8.970;2022-08-03T14:12:06;2.20;;;1.25;;
5343;SDS011;2694;48.950;8.970;2022-08-03T14:14:33;2.90;;;1.00;;
5343;SDS011;2694;48.950;8.970;2022-08-03T14:17:02;2.55;;;1.30;;
5343;SDS011;2694;48.950;8.970;2022-08-03T14:19:29;2.70;;;1.05;;
5343;SDS011;2694;48.950;8.970;2022-08-03T14:21:56;2.13;;;1.02;;
5343;SDS011;2694;48.950;8.970;2022-08-03T14:24:23;4.17;;;1.30;;
5343;SDS011;2694;48.950;8.970;2022-08-03T14:26:50;2.05;;;1.17;;
5343;SDS011;2694;48.950;8.970;2022-08-03T14:29:16;2.70;;;1.00;;
5343;SDS011;2694;48.950;8.970;2022-08-03T14:31:43;1.10;;;1.00;;
5343;SDS011;2694;48.950;8.970;2022-08-03T14:34:11;1.50;;;0.90;;
5343;SDS011;2694;48.950;8.970;2022-08-03T14:36:38;1.80;;;1.10;;
5343;SDS011;2694;48.950;8.970;2022-08-03T14:39:06;2.85;;;0.95;;
5343;SDS011;2694;48.950;8.970;2022-08-03T14:41:32;1.08;;;0.88;;
5343;SDS011;2694;48.950;8.970;2022-08-03T14:43:59;2.00;;;0.95;;
5343;SDS011;2694;48.950;8.970;2022-08-03T14:46:26;2.50;;;1.00;;
5343;SDS011;2694;48.950;8.970;2022-08-03T14:48:53;1.98;;;1.10;;
5343;SDS011;2694;48.950;8.970;2022-08-03T14:51:21;2.83;;;0.82;;
5343;SDS011;2694;48.950;8.970;2022-08-03T14:53:48;3.03;;;1.10;;
5343;SDS011;2694;48.950;8.970;2022-08-03T14:56:15;1.57;;;1.07;;
5343;SDS011;2694;48.950;8.970;2022-08-03T14:58:43;1.30;;;1.00;;
5343;SDS011;2694;48.950;8.970;2022-08-03T15:01:10;1.50;;;1.00;;
5343;SDS011;2694;48.950;8.970;2022-08-03T15:03:37;5.53;;;1.27;;
5343;SDS011;2694;48.950;8.970;2022-08-03T15:06:03;2.03;;;1.20;;
5343;SDS011;2694;48.950;8.970;2022-08-03T15:08:32;1.10;;;0.80;;
5343;SDS011;2694;48.950;8.970;2022-08-03T15:10:58;1.00;;;0.80;;
5343;SDS011;2694;48.950;8.970;2022-08-03T15:13:25;1.67;;;1.20;;
5343;SDS011;2694;48.950;8.970;2022-08-03T15:15:52;0.80;;;0.80;;
5343;SDS011;2694;48.950;8.970;2022-08-03T15:18:19;1.55;;;1.13;;
5343;SDS011;2694;48.950;8.970;2022-08-03T15:20:46;2.28;;;1.00;;
5343;SDS011;2694;48.950;8.970;2022-08-03T15:23:15;2.70;;;1.27;;
5343;SDS011;2694;48.950;8.970;2022-08-03T15:25:44;1.40;;;1.30;;
5343;SDS011;2694;48.950;8.970;2022-08-03T15:28:12;1.35;;;0.98;;
5343;SDS011;2694;48.950;8.970;2022-08-03T15:30:39;4.10;;;1.00;;
5343;SDS011;2694;48.950;8.970;2022-08-03T15:33:06;3.38;;;1.30;;
5343;SDS011;2694;48.950;8.970;2022-08-03T15:35:32;1.60;;;1.17;;
5343;SDS011;2694;48.950;8.970;2022-08-03T15:38:00;1.75;;;1.20;;
5343;SDS011;2694;48.950;8.970;2022-08-03T15:40:27;1.77;;;0.90;;
5343;SDS011;2694;48.950;8.970;2022-08-03T15:42:55;2.10;;;0.95;;
5343;SDS011;2694;48.950;8.970;2022-08-03T15:45:22;1.30;;;0.90;;
5343;SDS011;2694;48.950;8.970;2022-08-03T15:47:48;1.30;;;0.90;;